sensor_id;sensor_type;location;lat;lon;timestamp;P1;durP1;ratioP1;P2;durP2;ratioP2
20986;SDS011;10652;50.306;8.570;2024-01-30T00:04:01;13.50;;;8.45;;
20986;SDS011;10652;50.306;8.570;2024-01-30T00:08:04;11.98;;;8.80;;
20986;SDS011;10652;50.306;8.570;2024-01-30T00:12:06;13.35;;;10.00;;
20986;SDS011;10652;50.306;8.570;2024-01-30T00:16:08;14.57;;;10.48;;
20986;SDS011;10652;50.306;8.570;2024-01-30T00:20:21;12.13;;;9.45;;
20986;SDS011;10652;50.306;8.570;2024-01-30T00:24:24;16.35;;;9.85;;
20986;SDS011;10652;50.306;8.570;2024-01-30T00:28:26;11.90;;;9.32;;
20986;SDS011;10652;50.306;8.570;2024-01-30T00:32:28;12.23;;;8.95;;
20986;SDS011;10652;50.306;8.570;2024-01-30T00:36:30;11.63;;;9.05;;
20986;SDS011;10652;50.306;8.570;2024-01-30T00:40:32;12.60;;;9.38;;
20986;SDS011;10652;50.306;8.570;2024-01-30T00:49:29;11.95;;;9.32;;
20986;SDS011;10652;50.306;8.570;2024-01-30T00:53:31;11.63;;;8.90;;
20986;SDS011;10652;50.306;8.570;2024-01-30T00:57:33;12.73;;;8.77;;
20986;SDS011;10652;50.306;8.570;2024-01-30T01:01:35;10.50;;;8.98;;
20986;SDS011;10652;50.306;8.570;2024-01-30T01:05:37;13.45;;;8.48;;
20986;SDS011;10652;50.306;8.570;2024-01-30T01:09:39;9.30;;;8.30;;
20986;SDS011;10652;50.306;8.570;2024-01-30T01:13:42;11.30;;;8.50;;
20986;SDS011;10652;50.306;8.570;2024-01-30T01:17:44;12.63;;;8.98;;
20986;SDS011;10652;50.306;8.570;2024-01-30T01:21:46;12.80;;;8.93;;
20986;SDS011;10652;50.306;8.570;2024-01-30T01:25:48;9.90;;;8.32;;
20986;SDS011;10652;50.306;8.570;2024-01-30T01:29:51;12.57;;;8.77;;
20986;SDS011;10652;50.306;8.570;2024-01-30T01:33:53;12.43;;;9.00;;
20986;SDS011;10652;50.306;8.570;2024-01-30T01:37:55;9.98;;;8.55;;
20986;SDS011;10652;50.306;8.570;2024-01-30T01:41:58;12.18;;;9.50;;
20986;SDS011;10652;50.306;8.570;2024-01-30T01:46:00;11.65;;;9.40;;
20986;SDS011;10652;50.306;8.570;2024-01-30T01:50:03;10.27;;;8.45;;
20986;SDS011;10652;50.306;8.570;2024-01-30T01:54:06;13.63;;;8.60;;
20986;SDS011;10652;50.306;8.570;2024-01-30T01:58:09;10.00;;;8.20;;
20986;SDS011;10652;50.306;8.570;2024-01-30T02:02:12;12.32;;;8.43;;
20986;SDS011;10652;50.306;8.570;2024-01-30T02:06:17;12.60;;;8.80;;
20986;SDS011;10652;50.306;8.570;2024-01-30T02:10:20;12.18;;;8.85;;
20986;SDS011;10652;50.306;8.570;2024-01-30T02:14:23;14.77;;;9.00;;
20986;SDS011;10652;50.306;8.570;2024-01-30T02:18:27;9.90;;;8.23;;
20986;SDS011;10652;50.306;8.570;2024-01-30T02:22:29;13.27;;;8.75;;
20986;SDS011;10652;50.306;8.570;2024-01-30T02:26:31;10.82;;;8.52;;
20986;SDS011;10652;50.306;8.570;2024-01-30T02:30:33;13.73;;;10.07;;
20986;SDS011;10652;50.306;8.570;2024-01-30T02:34:36;11.75;;;8.70;;
20986;SDS011;10652;50.306;8.570;2024-01-30T02:38:38;11.13;;;8.85;;
20986;SDS011;10652;50.306;8.570;2024-01-30T02:42:40;11.48;;;8.85;;
20986;SDS011;10652;50.306;8.570;2024-01-30T02:46:43;11.55;;;8.82;;
20986;SDS011;10652;50.306;8.570;2024-01-30T02:50:45;12.63;;;8.50;;
20986;SDS011;10652;50.306;8.570;2024-01-30T02:54:48;11.93;;;9.00;;
20986;SDS011;10652;50.306;8.570;2024-01-30T02:58:51;11.65;;;8.82;;
20986;SDS011;10652;50.306;8.570;2024-01-30T03:02:53;11.23;;;8.63;;
20986;SDS011;10652;50.306;8.570;2024-01-30T03:06:55;11.95;;;8.55;;
20986;SDS011;10652;50.306;8.570;2024-01-30T03:10:57;11.50;;;8.52;;
20986;SDS011;10652;50.306;8.570;2024-01-30T03:14:59;10.57;;;8.63;;
20986;SDS011;10652;50.306;8.570;2024-01-30T03:19:01;10.77;;;8.27;;
20986;SDS011;10652;50.306;8.570;2024-01-30T03:23:05;12.82;;;8.73;;
20986;SDS011;10652;50.306;8.570;2024-01-30T03:27:08;10.77;;;8.23;;
20986;SDS011;10652;50.306;8.570;2024-01-30T03:31:12;10.82;;;8.35;;
20986;SDS011;10652;50.306;8.570;2024-01-30T03:35:15;9.98;;;8.40;;
20986;SDS011;10652;50.306;8.570;2024-01-30T03:39:17;11.38;;;8.43;;
20986;SDS011;10652;50.306;8.570;2024-01-30T03:43:20;10.18;;;8.35;;
20986;SDS011;10652;50.306;8.570;2024-01-30T03:47:22;11.98;;;8.93;;
20986;SDS011;10652;50.306;8.570;2024-01-30T03:51:24;11.27;;;8.80;;
20986;SDS011;10652;50.306;8.570;2024-01-30T03:55:26;12.82;;;9.05;;
20986;SDS011;10652;50.306;8.570;2024-01-30T03:59:28;10.73;;;8.43;;
20986;SDS011;10652;50.306;8.570;2024-01-30T04:03:30;11.77;;;8.10;;
20986;SDS011;10652;50.306;8.570;2024-01-30T04:07:33;9.57;;;8.15;;
20986;SDS011;10652;50.306;8.570;2024-01-30T04:11:35;10.20;;;8.32;;
20986;SDS011;10652;50.306;8.570;2024-01-30T04:15:37;18.83;;;11.60;;
20986;SDS011;10652;50.306;8.570;2024-01-30T04:19:39;20.30;;;12.05;;
20986;SDS011;10652;50.306;8.570;2024-01-30T04:23:43;19.55;;;11.77;;
20986;SDS011;10652;50.306;8.570;2024-01-30T04:27:45;16.20;;;9.75;;
20986;SDS011;10652;50.306;8.570;2024-01-30T04:31:47;14.23;;;9.55;;
20986;SDS011;10652;50.306;8.570;2024-01-30T04:35:49;14.15;;;9.48;;
20986;SDS011;10652;50.306;8.570;2024-01-30T04:39:52;11.88;;;8.65;;
20986;SDS011;10652;50.306;8.570;2024-01-30T04:43:54;12.10;;;8.98;;
20986;SDS011;10652;50.306;8.570;2024-01-30T04:47:56;12.25;;;8.95;;
20986;SDS011;10652;50.306;8.570;2024-01-30T04:51:58;12.18;;;9.10;;
20986;SDS011;10652;50.306;8.570;2024-01-30T04:56:01;12.32;;;8.95;;
20986;SDS011;10652;50.306;8.570;2024-01-30T05:00:03;11.68;;;9.02;;
20986;SDS011;10652;50.306;8.570;2024-01-30T05:04:09;10.93;;;8.20;;
20986;SDS011;10652;50.306;8.570;2024-01-30T05:08:17;16.23;;;11.70;;
20986;SDS011;10652;50.306;8.570;2024-01-30T05:12:20;16.48;;;13.05;;
20986;SDS011;10652;50.306;8.570;2024-01-30T05:16:22;15.23;;;11.63;;
20986;SDS011;10652;50.306;8.570;2024-01-30T05:20:24;13.00;;;10.20;;
20986;SDS011;10652;50.306;8.570;2024-01-30T05:24:29;12.63;;;9.90;;
20986;SDS011;10652;50.306;8.570;2024-01-30T05:28:32;13.05;;;9.88;;
20986;SDS011;10652;50.306;8.570;2024-01-30T05:32:34;13.43;;;9.77;;
20986;SDS011;10652;50.306;8.570;2024-01-30T05:36:36;12.02;;;9.50;;
20986;SDS011;10652;50.306;8.570;2024-01-30T05:40:39;13.52;;;9.50;;
20986;SDS011;10652;50.306;8.570;2024-01-30T05:44:41;10.52;;;8.70;;
20986;SDS011;10652;50.306;8.570;2024-01-30T05:48:43;11.73;;;9.13;;
20986;SDS011;10652;50.306;8.570;2024-01-30T05:52:45;13.82;;;9.45;;
20986;SDS011;10652;50.306;8.570;2024-01-30T05:56:47;16.02;;;11.10;;
20986;SDS011;10652;50.306;8.570;2024-01-30T06:00:50;16.42;;;10.35;;
20986;SDS011;10652;50.306;8.570;2024-01-30T06:04:52;20.67;;;12.38;;
20986;SDS011;10652;50.306;8.570;2024-01-30T06:08:54;19.10;;;12.75;;
20986;SDS011;10652;50.306;8.570;2024-01-30T06:12:57;19.30;;;13.15;;
20986;SDS011;10652;50.306;8.570;2024-01-30T06:17:00;17.02;;;12.50;;
20986;SDS011;10652;50.306;8.570;2024-01-30T06:21:02;16.33;;;12.48;;
20986;SDS011;10652;50.306;8.570;2024-01-30T06:25:04;21.55;;;12.75;;
20986;SDS011;10652;50.306;8.570;2024-01-30T06:29:06;18.38;;;13.43;;
20986;SDS011;10652;50.306;8.570;2024-01-30T06:33:11;19.48;;;12.77;;
20986;SDS011;10652;50.306;8.570;2024-01-30T06:37:14;20.52;;;13.95;;
20986;SDS011;10652;50.306;8.570;2024-01-30T06:41:16;18.95;;;13.77;;
20986;SDS011;10652;50.306;8.570;2024-01-30T06:45:18;17.05;;;12.43;;
20986;SDS011;10652;50.306;8.570;2024-01-30T06:49:21;17.13;;;12.48;;
20986;SDS011;10652;50.306;8.570;2024-01-30T06:53:24;16.27;;;12.18;;
20986;SDS011;10652;50.306;8.570;2024-01-30T06:57:27;15.48;;;12.55;;
20986;SDS011;10652;50.306;8.570;2024-01-30T07:01:29;18.17;;;12.82;;
20986;SDS011;10652;50.306;8.570;2024-01-30T07:05:32;19.60;;;13.02;;
20986;SDS011;10652;50.306;8.570;2024-01-30T07:09:34;16.23;;;12.35;;
20986;SDS011;10652;50.306;8.570;2024-01-30T07:13:38;17.35;;;12.77;;
20986;SDS011;10652;50.306;8.570;2024-01-30T07:17:40;13.63;;;11.32;;
20986;SDS011;10652;50.306;8.570;2024-01-30T07:21:42;15.65;;;11.40;;
20986;SDS011;10652;50.306;8.570;2024-01-30T07:25:44;15.93;;;11.90;;
20986;SDS011;10652;50.306;8.570;2024-01-30T07:29:49;18.60;;;11.93;;
20986;SDS011;10652;50.306;8.570;2024-01-30T07:33:52;19.67;;;12.40;;
20986;SDS011;10652;50.306;8.570;2024-01-30T07:37:55;14.13;;;10.50;;
20986;SDS011;10652;50.306;8.570;2024-01-30T07:41:58;15.13;;;10.80;;
20986;SDS011;10652;50.306;8.570;2024-01-30T07:46:01;13.23;;;9.63;;
20986;SDS011;10652;50.306;8.570;2024-01-30T07:50:04;14.70;;;10.35;;
20986;SDS011;10652;50.306;8.570;2024-01-30T07:54:07;14.60;;;9.93;;
20986;SDS011;10652;50.306;8.570;2024-01-30T07:58:09;14.63;;;9.65;;
20986;SDS011;10652;50.306;8.570;2024-01-30T08:02:12;15.02;;;9.30;;
20986;SDS011;10652;50.306;8.570;2024-01-30T08:06:15;16.60;;;10.25;;
20986;SDS011;10652;50.306;8.570;2024-01-30T08:10:17;15.88;;;10.32;;
20986;SDS011;10652;50.306;8.570;2024-01-30T08:14:22;14.88;;;10.25;;
20986;SDS011;10652;50.306;8.570;2024-01-30T08:18:25;14.90;;;9.25;;
20986;SDS011;10652;50.306;8.570;2024-01-30T08:22:27;14.23;;;10.60;;
20986;SDS011;10652;50.306;8.570;2024-01-30T08:26:30;14.32;;;10.00;;
20986;SDS011;10652;50.306;8.570;2024-01-30T08:30:32;11.95;;;9.05;;
20986;SDS011;10652;50.306;8.570;2024-01-30T08:34:34;11.32;;;8.77;;
20986;SDS011;10652;50.306;8.570;2024-01-30T08:38:37;11.25;;;9.35;;
20986;SDS011;10652;50.306;8.570;2024-01-30T08:42:39;14.50;;;9.75;;
20986;SDS011;10652;50.306;8.570;2024-01-30T08:46:41;14.73;;;10.55;;
20986;SDS011;10652;50.306;8.570;2024-01-30T08:50:44;13.93;;;10.00;;
20986;SDS011;10652;50.306;8.570;2024-01-30T08:54:46;12.60;;;9.50;;
20986;SDS011;10652;50.306;8.570;2024-01-30T08:58:48;13.05;;;8.80;;
20986;SDS011;10652;50.306;8.570;2024-01-30T09:02:51;11.63;;;8.50;;
20986;SDS011;10652;50.306;8.570;2024-01-30T09:06:53;10.20;;;7.60;;
20986;SDS011;10652;50.306;8.570;2024-01-30T09:10:55;11.98;;;9.70;;
20986;SDS011;10652;50.306;8.570;2024-01-30T09:14:58;9.05;;;7.22;;
20986;SDS011;10652;50.306;8.570;2024-01-30T09:19:01;11.07;;;9.00;;
20986;SDS011;10652;50.306;8.570;2024-01-30T09:23:03;10.10;;;8.13;;
20986;SDS011;10652;50.306;8.570;2024-01-30T09:27:05;8.93;;;7.43;;
20986;SDS011;10652;50.306;8.570;2024-01-30T09:31:11;10.38;;;7.47;;
20986;SDS011;10652;50.306;8.570;2024-01-30T09:35:14;10.95;;;7.40;;
20986;SDS011;10652;50.306;8.570;2024-01-30T09:39:18;8.95;;;7.05;;
20986;SDS011;10652;50.306;8.570;2024-01-30T09:43:22;12.25;;;8.00;;
20986;SDS011;10652;50.306;8.570;2024-01-30T09:47:30;9.00;;;7.57;;
20986;SDS011;10652;50.306;8.570;2024-01-30T09:51:33;10.50;;;7.60;;
20986;SDS011;10652;50.306;8.570;2024-01-30T09:55:36;10.75;;;7.68;;
20986;SDS011;10652;50.306;8.570;2024-01-30T09:59:39;10.73;;;7.43;;
20986;SDS011;10652;50.306;8.570;2024-01-30T10:03:43;8.25;;;6.80;;
20986;SDS011;10652;50.306;8.570;2024-01-30T10:07:52;10.50;;;7.85;;
20986;SDS011;10652;50.306;8.570;2024-01-30T10:11:56;10.35;;;7.10;;
20986;SDS011;10652;50.306;8.570;2024-01-30T10:15:59;9.63;;;7.03;;
20986;SDS011;10652;50.306;8.570;2024-01-30T10:20:04;9.20;;;6.80;;
20986;SDS011;10652;50.306;8.570;2024-01-30T10:24:07;11.10;;;7.68;;
20986;SDS011;10652;50.306;8.570;2024-01-30T10:28:09;10.55;;;7.40;;
20986;SDS011;10652;50.306;8.570;2024-01-30T10:32:11;11.95;;;7.72;;
20986;SDS011;10652;50.306;8.570;2024-01-30T10:36:14;11.68;;;8.10;;
20986;SDS011;10652;50.306;8.570;2024-01-30T10:40:21;12.32;;;7.18;;
20986;SDS011;10652;50.306;8.570;2024-01-30T10:44:29;10.30;;;7.50;;
20986;SDS011;10652;50.306;8.570;2024-01-30T10:48:36;10.85;;;7.30;;
20986;SDS011;10652;50.306;8.570;2024-01-30T10:52:44;12.02;;;7.82;;
20986;SDS011;10652;50.306;8.570;2024-01-30T10:56:47;10.70;;;7.70;;
20986;SDS011;10652;50.306;8.570;2024-01-30T11:00:51;9.43;;;7.63;;
20986;SDS011;10652;50.306;8.570;2024-01-30T11:04:57;10.48;;;8.13;;
20986;SDS011;10652;50.306;8.570;2024-01-30T11:09:02;10.27;;;7.97;;
20986;SDS011;10652;50.306;8.570;2024-01-30T11:13:15;11.75;;;8.13;;
20986;SDS011;10652;50.306;8.570;2024-01-30T11:17:17;9.38;;;7.68;;
20986;SDS011;10652;50.306;8.570;2024-01-30T11:21:20;10.75;;;7.50;;
20986;SDS011;10652;50.306;8.570;2024-01-30T11:25:22;11.25;;;7.53;;
20986;SDS011;10652;50.306;8.570;2024-01-30T11:29:26;10.93;;;7.80;;
20986;SDS011;10652;50.306;8.570;2024-01-30T11:33:29;12.68;;;8.18;;
20986;SDS011;10652;50.306;8.570;2024-01-30T11:37:36;8.65;;;7.47;;
20986;SDS011;10652;50.306;8.570;2024-01-30T11:41:40;8.70;;;7.60;;
20986;SDS011;10652;50.306;8.570;2024-01-30T11:45:43;9.60;;;7.07;;
20986;SDS011;10652;50.306;8.570;2024-01-30T11:49:46;9.10;;;7.50;;
20986;SDS011;10652;50.306;8.570;2024-01-30T11:53:49;9.63;;;7.32;;
20986;SDS011;10652;50.306;8.570;2024-01-30T11:57:55;10.40;;;7.53;;
20986;SDS011;10652;50.306;8.570;2024-01-30T12:01:58;8.45;;;6.55;;
20986;SDS011;10652;50.306;8.570;2024-01-30T12:06:00;9.43;;;7.85;;
20986;SDS011;10652;50.306;8.570;2024-01-30T12:10:05;10.95;;;7.57;;
20986;SDS011;10652;50.306;8.570;2024-01-30T12:14:07;10.88;;;7.78;;
20986;SDS011;10652;50.306;8.570;2024-01-30T12:18:10;12.90;;;7.15;;
20986;SDS011;10652;50.306;8.570;2024-01-30T12:22:12;11.30;;;7.63;;
20986;SDS011;10652;50.306;8.570;2024-01-30T12:26:14;9.38;;;7.45;;
20986;SDS011;10652;50.306;8.570;2024-01-30T12:30:17;10.02;;;7.53;;
20986;SDS011;10652;50.306;8.570;2024-01-30T12:34:22;11.80;;;7.82;;
20986;SDS011;10652;50.306;8.570;2024-01-30T12:38:26;11.68;;;7.82;;
20986;SDS011;10652;50.306;8.570;2024-01-30T12:42:29;12.07;;;8.27;;
20986;SDS011;10652;50.306;8.570;2024-01-30T12:46:31;7.43;;;6.05;;
20986;SDS011;10652;50.306;8.570;2024-01-30T12:50:35;7.57;;;6.25;;
20986;SDS011;10652;50.306;8.570;2024-01-30T12:54:38;11.10;;;6.72;;
20986;SDS011;10652;50.306;8.570;2024-01-30T12:58:40;12.15;;;6.45;;
20986;SDS011;10652;50.306;8.570;2024-01-30T13:02:47;7.65;;;6.13;;
20986;SDS011;10652;50.306;8.570;2024-01-30T13:06:49;10.48;;;6.70;;
20986;SDS011;10652;50.306;8.570;2024-01-30T13:10:51;9.00;;;6.30;;
20986;SDS011;10652;50.306;8.570;2024-01-30T13:14:54;10.23;;;7.10;;
20986;SDS011;10652;50.306;8.570;2024-01-30T13:18:56;11.05;;;6.78;;
20986;SDS011;10652;50.306;8.570;2024-01-30T13:22:58;8.98;;;5.85;;
20986;SDS011;10652;50.306;8.570;2024-01-30T13:27:00;10.65;;;7.05;;
20986;SDS011;10652;50.306;8.570;2024-01-30T13:31:03;8.73;;;6.93;;
20986;SDS011;10652;50.306;8.570;2024-01-30T13:35:05;10.00;;;6.60;;
20986;SDS011;10652;50.306;8.570;2024-01-30T13:39:07;11.70;;;7.50;;
20986;SDS011;10652;50.306;8.570;2024-01-30T13:43:11;12.05;;;8.13;;
20986;SDS011;10652;50.306;8.570;2024-01-30T13:47:14;9.88;;;7.40;;
20986;SDS011;10652;50.306;8.570;2024-01-30T13:51:16;9.57;;;6.50;;
20986;SDS011;10652;50.306;8.570;2024-01-30T13:55:19;10.75;;;7.10;;
20986;SDS011;10652;50.306;8.570;2024-01-30T13:59:21;10.45;;;6.85;;
20986;SDS011;10652;50.306;8.570;2024-01-30T14:03:26;11.25;;;7.03;;
20986;SDS011;10652;50.306;8.570;2024-01-30T14:07:28;9.82;;;7.03;;
20986;SDS011;10652;50.306;8.570;2024-01-30T14:11:30;8.85;;;7.13;;
20986;SDS011;10652;50.306;8.570;2024-01-30T14:15:32;9.30;;;5.90;;
20986;SDS011;10652;50.306;8.570;2024-01-30T14:19:35;7.47;;;5.88;;
20986;SDS011;10652;50.306;8.570;2024-01-30T14:23:38;10.48;;;6.30;;
20986;SDS011;10652;50.306;8.570;2024-01-30T14:27:40;8.25;;;5.88;;
20986;SDS011;10652;50.306;8.570;2024-01-30T14:31:42;8.88;;;6.22;;
20986;SDS011;10652;50.306;8.570;2024-01-30T14:35:44;7.80;;;5.97;;
20986;SDS011;10652;50.306;8.570;2024-01-30T14:39:47;9.18;;;7.57;;
20986;SDS011;10652;50.306;8.570;2024-01-30T14:43:50;9.10;;;6.13;;
20986;SDS011;10652;50.306;8.570;2024-01-30T14:47:52;8.57;;;5.80;;
20986;SDS011;10652;50.306;8.570;2024-01-30T14:51:55;7.25;;;5.95;;
20986;SDS011;10652;50.306;8.570;2024-01-30T14:55:57;7.80;;;6.25;;
20986;SDS011;10652;50.306;8.570;2024-01-30T14:59:59;16.20;;;11.73;;
20986;SDS011;10652;50.306;8.570;2024-01-30T15:04:01;8.20;;;6.97;;
20986;SDS011;10652;50.306;8.570;2024-01-30T15:08:04;17.45;;;13.57;;
20986;SDS011;10652;50.306;8.570;2024-01-30T15:12:06;32.33;;;22.33;;
20986;SDS011;10652;50.306;8.570;2024-01-30T15:16:09;12.00;;;8.45;;
20986;SDS011;10652;50.306;8.570;2024-01-30T15:20:11;15.15;;;9.00;;
20986;SDS011;10652;50.306;8.570;2024-01-30T15:24:13;10.38;;;6.22;;
20986;SDS011;10652;50.306;8.570;2024-01-30T15:28:18;8.65;;;6.57;;
20986;SDS011;10652;50.306;8.570;2024-01-30T15:32:21;9.35;;;6.60;;
20986;SDS011;10652;50.306;8.570;2024-01-30T15:36:23;10.07;;;7.43;;
20986;SDS011;10652;50.306;8.570;2024-01-30T15:40:25;12.35;;;6.97;;
20986;SDS011;10652;50.306;8.570;2024-01-30T15:44:27;9.60;;;6.47;;
20986;SDS011;10652;50.306;8.570;2024-01-30T15:48:29;9.18;;;7.43;;
20986;SDS011;10652;50.306;8.570;2024-01-30T15:52:32;10.38;;;6.28;;
20986;SDS011;10652;50.306;8.570;2024-01-30T15:56:34;9.57;;;6.43;;
20986;SDS011;10652;50.306;8.570;2024-01-30T16:00:36;9.10;;;6.60;;
20986;SDS011;10652;50.306;8.570;2024-01-30T16:04:38;9.15;;;6.53;;
20986;SDS011;10652;50.306;8.570;2024-01-30T16:08:40;10.55;;;8.18;;
20986;SDS011;10652;50.306;8.570;2024-01-30T16:12:44;14.20;;;10.13;;
20986;SDS011;10652;50.306;8.570;2024-01-30T16:16:49;22.00;;;14.00;;
20986;SDS011;10652;50.306;8.570;2024-01-30T16:20:51;25.55;;;17.23;;
20986;SDS011;10652;50.306;8.570;2024-01-30T16:24:54;17.45;;;12.55;;
20986;SDS011;10652;50.306;8.570;2024-01-30T16:28:56;15.63;;;9.52;;
20986;SDS011;10652;50.306;8.570;2024-01-30T16:32:58;15.52;;;11.23;;
20986;SDS011;10652;50.306;8.570;2024-01-30T16:37:01;14.65;;;9.75;;
20986;SDS011;10652;50.306;8.570;2024-01-30T16:41:03;12.50;;;9.30;;
20986;SDS011;10652;50.306;8.570;2024-01-30T16:45:05;16.90;;;12.05;;
20986;SDS011;10652;50.306;8.570;2024-01-30T16:49:08;14.43;;;10.35;;
20986;SDS011;10652;50.306;8.570;2024-01-30T16:53:10;13.32;;;9.10;;
20986;SDS011;10652;50.306;8.570;2024-01-30T16:57:12;9.15;;;7.10;;
20986;SDS011;10652;50.306;8.570;2024-01-30T17:01:14;10.38;;;7.22;;
20986;SDS011;10652;50.306;8.570;2024-01-30T17:05:17;16.63;;;12.23;;
20986;SDS011;10652;50.306;8.570;2024-01-30T17:09:28;15.48;;;10.35;;
20986;SDS011;10652;50.306;8.570;2024-01-30T17:13:30;12.85;;;9.55;;
20986;SDS011;10652;50.306;8.570;2024-01-30T17:17:32;12.75;;;9.73;;
20986;SDS011;10652;50.306;8.570;2024-01-30T17:21:34;16.30;;;11.48;;
20986;SDS011;10652;50.306;8.570;2024-01-30T17:25:38;12.90;;;9.68;;
20986;SDS011;10652;50.306;8.570;2024-01-30T17:29:41;13.20;;;8.45;;
20986;SDS011;10652;50.306;8.570;2024-01-30T17:33:43;13.38;;;8.25;;
20986;SDS011;10652;50.306;8.570;2024-01-30T17:37:45;11.93;;;8.68;;
20986;SDS011;10652;50.306;8.570;2024-01-30T17:41:48;12.60;;;9.23;;
20986;SDS011;10652;50.306;8.570;2024-01-30T17:45:50;16.52;;;10.88;;
20986;SDS011;10652;50.306;8.570;2024-01-30T17:49:52;14.65;;;10.38;;
20986;SDS011;10652;50.306;8.570;2024-01-30T17:53:54;13.52;;;8.30;;
20986;SDS011;10652;50.306;8.570;2024-01-30T17:57:56;10.48;;;7.80;;
20986;SDS011;10652;50.306;8.570;2024-01-30T18:01:58;15.68;;;11.68;;
20986;SDS011;10652;50.306;8.570;2024-01-30T18:06:01;11.02;;;8.13;;
20986;SDS011;10652;50.306;8.570;2024-01-30T18:10:03;10.73;;;7.28;;
20986;SDS011;10652;50.306;8.570;2024-01-30T18:14:06;10.27;;;6.50;;
20986;SDS011;10652;50.306;8.570;2024-01-30T18:18:08;9.13;;;5.95;;
20986;SDS011;10652;50.306;8.570;2024-01-30T18:22:13;9.85;;;5.72;;
20986;SDS011;10652;50.306;8.570;2024-01-30T18:26:15;10.05;;;6.03;;
20986;SDS011;10652;50.306;8.570;2024-01-30T18:30:18;11.25;;;6.45;;
20986;SDS011;10652;50.306;8.570;2024-01-30T18:34:20;11.90;;;6.60;;
20986;SDS011;10652;50.306;8.570;2024-01-30T18:38:22;8.35;;;6.18;;
20986;SDS011;10652;50.306;8.570;2024-01-30T18:42:24;9.48;;;6.35;;
20986;SDS011;10652;50.306;8.570;2024-01-30T18:46:26;12.70;;;9.70;;
20986;SDS011;10652;50.306;8.570;2024-01-30T18:50:28;14.15;;;9.40;;
20986;SDS011;10652;50.306;8.570;2024-01-30T18:54:31;15.00;;;9.93;;
20986;SDS011;10652;50.306;8.570;2024-01-30T18:58:33;11.40;;;7.57;;
20986;SDS011;10652;50.306;8.570;2024-01-30T19:02:35;10.73;;;7.47;;
20986;SDS011;10652;50.306;8.570;2024-01-30T19:06:38;12.50;;;7.53;;
20986;SDS011;10652;50.306;8.570;2024-01-30T19:10:40;9.50;;;6.63;;
20986;SDS011;10652;50.306;8.570;2024-01-30T19:14:45;10.93;;;6.97;;
20986;SDS011;10652;50.306;8.570;2024-01-30T19:18:47;10.60;;;7.07;;
20986;SDS011;10652;50.306;8.570;2024-01-30T19:22:51;13.13;;;8.30;;
20986;SDS011;10652;50.306;8.570;2024-01-30T19:26:53;12.18;;;7.90;;
20986;SDS011;10652;50.306;8.570;2024-01-30T19:30:55;11.10;;;8.27;;
20986;SDS011;10652;50.306;8.570;2024-01-30T19:34:58;13.60;;;8.95;;
20986;SDS011;10652;50.306;8.570;2024-01-30T19:39:00;11.93;;;8.35;;
20986;SDS011;10652;50.306;8.570;2024-01-30T19:43:02;12.45;;;7.90;;
20986;SDS011;10652;50.306;8.570;2024-01-30T19:47:05;10.98;;;7.97;;
20986;SDS011;10652;50.306;8.570;2024-01-30T19:51:11;10.68;;;7.60;;
20986;SDS011;10652;50.306;8.570;2024-01-30T19:55:13;10.07;;;7.32;;
20986;SDS011;10652;50.306;8.570;2024-01-30T19:59:15;13.07;;;7.38;;
20986;SDS011;10652;50.306;8.570;2024-01-30T20:03:17;12.40;;;7.85;;
20986;SDS011;10652;50.306;8.570;2024-01-30T20:07:20;12.93;;;8.25;;
20986;SDS011;10652;50.306;8.570;2024-01-30T20:11:22;10.90;;;7.78;;
20986;SDS011;10652;50.306;8.570;2024-01-30T20:15:24;14.65;;;9.15;;
20986;SDS011;10652;50.306;8.570;2024-01-30T20:19:27;13.82;;;8.20;;
20986;SDS011;10652;50.306;8.570;2024-01-30T20:23:30;10.85;;;7.15;;
20986;SDS011;10652;50.306;8.570;2024-01-30T20:27:33;9.75;;;7.40;;
20986;SDS011;10652;50.306;8.570;2024-01-30T20:31:35;10.65;;;7.55;;
20986;SDS011;10652;50.306;8.570;2024-01-30T20:35:37;9.88;;;6.88;;
20986;SDS011;10652;50.306;8.570;2024-01-30T20:39:39;11.68;;;7.13;;
20986;SDS011;10652;50.306;8.570;2024-01-30T20:43:43;11.88;;;7.15;;
20986;SDS011;10652;50.306;8.570;2024-01-30T20:47:45;10.52;;;6.78;;
20986;SDS011;10652;50.306;8.570;2024-01-30T20:51:47;12.25;;;8.32;;
20986;SDS011;10652;50.306;8.570;2024-01-30T20:55:49;11.93;;;7.78;;
20986;SDS011;10652;50.306;8.570;2024-01-30T20:59:52;10.00;;;6.90;;
20986;SDS011;10652;50.306;8.570;2024-01-30T21:03:54;10.40;;;7.40;;
20986;SDS011;10652;50.306;8.570;2024-01-30T21:07:56;13.30;;;7.43;;
20986;SDS011;10652;50.306;8.570;2024-01-30T21:11:59;10.63;;;7.40;;
20986;SDS011;10652;50.306;8.570;2024-01-30T21:16:01;12.50;;;9.25;;
20986;SDS011;10652;50.306;8.570;2024-01-30T21:20:03;12.45;;;8.90;;
20986;SDS011;10652;50.306;8.570;2024-01-30T21:24:06;17.10;;;11.00;;
20986;SDS011;10652;50.306;8.570;2024-01-30T21:28:08;15.57;;;10.57;;
20986;SDS011;10652;50.306;8.570;2024-01-30T21:32:13;18.73;;;11.23;;
20986;SDS011;10652;50.306;8.570;2024-01-30T21:36:17;16.25;;;10.55;;
20986;SDS011;10652;50.306;8.570;2024-01-30T21:40:19;16.95;;;10.85;;
20986;SDS011;10652;50.306;8.570;2024-01-30T21:44:21;12.63;;;8.57;;
20986;SDS011;10652;50.306;8.570;2024-01-30T21:48:23;9.68;;;7.40;;
20986;SDS011;10652;50.306;8.570;2024-01-30T21:52:26;9.70;;;7.45;;
20986;SDS011;10652;50.306;8.570;2024-01-30T21:56:28;12.82;;;6.90;;
20986;SDS011;10652;50.306;8.570;2024-01-30T22:00:30;11.82;;;6.20;;
20986;SDS011;10652;50.306;8.570;2024-01-30T22:04:32;8.52;;;6.03;;
20986;SDS011;10652;50.306;8.570;2024-01-30T22:08:34;10.55;;;6.18;;
20986;SDS011;10652;50.306;8.570;2024-01-30T22:12:36;7.70;;;5.32;;
20986;SDS011;10652;50.306;8.570;2024-01-30T22:16:39;9.18;;;5.72;;
20986;SDS011;10652;50.306;8.570;2024-01-30T22:20:42;23.83;;;13.52;;
20986;SDS011;10652;50.306;8.570;2024-01-30T22:24:44;8.20;;;5.60;;
20986;SDS011;10652;50.306;8.570;2024-01-30T22:28:47;6.32;;;4.75;;
20986;SDS011;10652;50.306;8.570;2024-01-30T22:32:49;7.75;;;4.72;;
20986;SDS011;10652;50.306;8.570;2024-01-30T22:36:51;5.40;;;3.97;;
20986;SDS011;10652;50.306;8.570;2024-01-30T22:40:54;6.43;;;4.05;;
20986;SDS011;10652;50.306;8.570;2024-01-30T22:44:58;6.50;;;4.53;;
20986;SDS011;10652;50.306;8.570;2024-01-30T22:49:00;11.40;;;5.05;;
20986;SDS011;10652;50.306;8.570;2024-01-30T22:53:03;6.05;;;4.57;;
20986;SDS011;10652;50.306;8.570;2024-01-30T22:57:05;7.75;;;4.97;;
20986;SDS011;10652;50.306;8.570;2024-01-30T23:01:08;8.48;;;5.07;;
20986;SDS011;10652;50.306;8.570;2024-01-30T23:05:10;6.63;;;4.15;;
20986;SDS011;10652;50.306;8.570;2024-01-30T23:09:13;6.95;;;4.43;;
20986;SDS011;10652;50.306;8.570;2024-01-30T23:13:17;7.55;;;4.50;;
20986;SDS011;10652;50.306;8.570;2024-01-30T23:17:19;9.32;;;4.47;;
20986;SDS011;10652;50.306;8.570;2024-01-30T23:21:21;6.90;;;4.95;;
20986;SDS011;10652;50.306;8.570;2024-01-30T23:25:23;5.20;;;4.25;;
20986;SDS011;10652;50.306;8.570;2024-01-30T23:29:26;5.45;;;4.43;;
20986;SDS011;10652;50.306;8.570;2024-01-30T23:33:28;17.58;;;11.32;;
20986;SDS011;10652;50.306;8.570;2024-01-30T23:37:30;19.05;;;10.93;;
20986;SDS011;10652;50.306;8.570;2024-01-30T23:41:32;13.50;;;8.23;;
20986;SDS011;10652;50.306;8.570;2024-01-30T23:45:34;8.02;;;5.63;;
20986;SDS011;10652;50.306;8.570;2024-01-30T23:49:36;5.50;;;3.78;;
20986;SDS011;10652;50.306;8.570;2024-01-30T23:53:38;5.57;;;3.63;;
20986;SDS011;10652;50.306;8.570;2024-01-30T23:57:40;7.30;;;3.70;;
